Time;durP1;ratioP1;P1;durP2;ratioP2;P2;SDS_P1;SDS_P2;PMS_P1;PMS_P2;Temp;Humidity;BMP_temperature;BMP_pressure;BME280_temperature;BME280_humidity;BME280_pressure;Samples;Min_cycle;Max_cycle;Signal;HPM_P1;HPM_P2
2023/04/13 00:00:24;;;;;;;0.00;0.00;;;9.10;78.10;;;;;;4955927;28;20431;-63
2023/04/13 00:02:55;;;;;;;0.40;0.00;;;9.10;78.10;;;;;;4957130;28;20045;-63
2023/04/13 00:05:22;;;;;;;1.48;0.10;;;9.10;78.10;;;;;;4958597;28;20134;-63
2023/04/13 00:07:48;;;;;;;0.40;0.10;;;9.00;78.00;;;;;;4958356;28;20046;-63
2023/04/13 00:10:14;;;;;;;0.00;0.00;;;9.00;78.20;;;;;;4956865;28;20033;-61
2023/04/13 00:12:41;;;;;;;0.68;0.10;;;8.90;78.30;;;;;;4960501;28;20590;-63
2023/04/13 00:15:08;;;;;;;0.03;0.00;;;8.90;78.40;;;;;;4958516;28;20174;-63
2023/04/13 00:17:34;;;;;;;0.00;0.00;;;8.90;78.60;;;;;;4954892;28;20039;-63
2023/04/13 00:20:00;;;;;;;0.08;0.08;;;8.80;78.70;;;;;;4950661;28;20045;-63
2023/04/13 00:22:29;;;;;;;0.10;0.10;;;8.80;78.90;;;;;;4944773;28;20034;-63
2023/04/13 00:24:55;;;;;;;1.38;0.10;;;8.70;79.10;;;;;;4951554;28;20059;-63
2023/04/13 00:27:22;;;;;;;0.25;0.10;;;8.80;79.40;;;;;;4954549;28;20487;-63
2023/04/13 00:29:48;;;;;;;0.10;0.10;;;8.70;79.30;;;;;;4957735;28;20117;-62
2023/04/13 00:32:13;;;;;;;0.85;0.30;;;8.70;79.20;;;;;;4957310;28;20121;-62
2023/04/13 00:34:39;;;;;;;1.60;0.10;;;8.70;79.10;;;;;;4954282;28;20126;-63
2023/04/13 00:37:06;;;;;;;0.20;0.10;;;8.70;79.20;;;;;;4956515;28;20415;-63
2023/04/13 00:39:32;;;;;;;0.40;0.38;;;8.60;79.20;;;;;;4955287;28;20542;-63
2023/04/13 00:41:58;;;;;;;0.70;0.30;;;8.60;79.10;;;;;;4955774;28;20475;-63
2023/04/13 00:44:24;;;;;;;0.50;0.13;;;8.60;79.20;;;;;;4957291;28;20074;-63
2023/04/13 00:46:53;;;;;;;0.85;0.20;;;8.60;79.40;;;;;;4958474;28;20676;-63
2023/04/13 00:49:20;;;;;;;0.95;0.22;;;8.60;79.40;;;;;;4954072;28;20081;-63
2023/04/13 00:51:46;;;;;;;0.05;0.05;;;8.50;79.40;;;;;;4957035;28;20039;-63
2023/04/13 00:54:16;;;;;;;0.15;0.03;;;8.50;79.50;;;;;;4957516;28;20046;-63
2023/04/13 00:56:43;;;;;;;0.50;0.10;;;8.50;79.70;;;;;;4954106;28;20155;-62
2023/04/13 00:59:12;;;;;;;0.95;0.17;;;8.50;79.60;;;;;;4957655;28;20058;-62
2023/04/13 01:01:49;;;;;;;0.08;0.08;;;8.50;79.80;;;;;;4956714;28;20031;-62
2023/04/13 01:04:18;;;;;;;0.68;0.10;;;8.50;79.80;;;;;;4956759;28;20411;-62
2023/04/13 01:07:24;;;;;;;0.38;0.15;;;8.40;79.90;;;;;;4955106;28;20562;-62
2023/04/13 01:10:07;;;;;;;1.75;0.20;;;8.50;80.60;;;;;;4931175;28;20499;-62
2023/04/13 01:12:38;;;;;;;1.55;0.10;;;8.50;80.30;;;;;;4956065;28;20042;-63
2023/04/13 01:15:10;;;;;;;0.38;0.10;;;8.50;79.80;;;;;;4944538;28;20043;-62
2023/04/13 01:17:37;;;;;;;0.10;0.10;;;8.50;80.00;;;;;;4956896;28;20032;-62
2023/04/13 01:20:12;;;;;;;0.30;0.10;;;8.50;80.00;;;;;;4956780;28;20068;-63
2023/04/13 01:22:44;;;;;;;0.00;0.00;;;8.50;80.10;;;;;;4954757;28;20506;-62
2023/04/13 01:25:37;;;;;;;0.10;0.10;;;8.50;80.10;;;;;;4956017;28;20050;-63
2023/04/13 01:28:06;;;;;;;0.17;0.10;;;8.40;80.60;;;;;;4955876;28;20046;-62
2023/04/13 01:30:34;;;;;;;0.65;0.10;;;8.40;80.00;;;;;;4954687;28;20130;-63
2023/04/13 01:33:04;;;;;;;0.10;0.10;;;8.40;80.10;;;;;;4954660;28;20092;-63
2023/04/13 01:35:30;;;;;;;0.20;0.20;;;8.40;80.30;;;;;;4956818;28;20036;-63
2023/04/13 01:37:56;;;;;;;0.03;0.03;;;8.40;80.30;;;;;;4955598;28;20042;-62
2023/04/13 01:40:27;;;;;;;0.25;0.10;;;8.40;80.40;;;;;;4954600;28;20041;-63
2023/04/13 01:42:53;;;;;;;0.10;0.10;;;8.40;81.20;;;;;;4953520;28;20043;-63
2023/04/13 01:45:24;;;;;;;1.02;0.10;;;8.40;80.40;;;;;;4956510;28;20047;-63
2023/04/13 01:48:17;;;;;;;0.20;0.10;;;8.30;80.80;;;;;;4956612;28;21652;-63
2023/04/13 01:50:50;;;;;;;0.10;0.10;;;8.30;81.00;;;;;;4955075;28;20120;-62
2023/04/13 01:53:27;;;;;;;0.13;0.13;;;8.30;81.30;;;;;;4956837;28;20086;-63
2023/04/13 01:55:53;;;;;;;0.30;0.10;;;8.20;81.60;;;;;;4957489;28;20034;-63
2023/04/13 01:58:22;;;;;;;0.20;0.10;;;8.20;81.40;;;;;;4957021;28;20047;-63
2023/04/13 02:00:48;;;;;;;0.35;0.10;;;8.20;81.60;;;;;;4953165;28;20054;-62
2023/04/13 02:03:15;;;;;;;0.10;0.10;;;8.20;81.60;;;;;;4953784;28;20058;-63
2023/04/13 02:05:40;;;;;;;0.75;0.20;;;8.20;81.70;;;;;;4954706;28;20074;-62
2023/04/13 02:08:08;;;;;;;0.50;0.20;;;8.20;81.80;;;;;;4954595;28;20122;-63
2023/04/13 02:10:36;;;;;;;0.17;0.10;;;8.20;82.00;;;;;;4956115;28;20042;-63
2023/04/13 02:13:02;;;;;;;1.65;0.20;;;8.10;82.10;;;;;;4956713;28;20459;-61
2023/04/13 02:15:29;;;;;;;0.73;0.20;;;8.20;82.20;;;;;;4957328;28;20156;-63
2023/04/13 02:17:55;;;;;;;3.20;0.20;;;8.20;82.10;;;;;;4955603;28;20313;-63
2023/04/13 02:20:21;;;;;;;0.28;0.20;;;8.20;82.00;;;;;;4953992;28;20078;-62
2023/04/13 02:22:47;;;;;;;2.45;0.30;;;8.30;82.30;;;;;;4955868;28;20062;-62
2023/04/13 02:25:14;;;;;;;0.30;0.20;;;8.30;82.30;;;;;;4955700;28;20499;-62
2023/04/13 02:27:40;;;;;;;0.50;0.20;;;8.20;82.20;;;;;;4954684;28;20041;-62
2023/04/13 02:30:08;;;;;;;0.43;0.30;;;8.20;82.20;;;;;;4955753;28;20027;-63
2023/04/13 02:32:40;;;;;;;0.47;0.30;;;8.30;82.30;;;;;;4953795;28;20031;-63
2023/04/13 02:35:09;;;;;;;1.88;0.20;;;8.30;82.40;;;;;;4952216;28;20134;-63
2023/04/13 02:37:38;;;;;;;0.68;0.38;;;8.30;82.20;;;;;;4955501;28;20038;-62
2023/04/13 02:40:11;;;;;;;0.55;0.35;;;8.30;82.00;;;;;;4957228;28;20032;-63
2023/04/13 02:42:38;;;;;;;0.90;0.38;;;8.30;82.00;;;;;;4953540;28;20346;-63
2023/04/13 02:45:06;;;;;;;1.20;0.30;;;8.30;82.00;;;;;;4952362;28;20135;-63
2023/04/13 02:47:35;;;;;;;0.40;0.30;;;8.30;81.90;;;;;;4954462;28;20116;-63
2023/04/13 02:50:00;;;;;;;0.70;0.20;;;8.30;81.90;;;;;;4952429;28;20351;-63
2023/04/13 02:52:26;;;;;;;2.35;0.60;;;8.30;81.70;;;;;;4955539;28;20443;-62
2023/04/13 02:54:53;;;;;;;0.60;0.20;;;8.30;81.60;;;;;;4952894;28;20122;-62
2023/04/13 02:57:19;;;;;;;1.80;0.40;;;8.30;81.50;;;;;;4951982;28;20126;-63
2023/04/13 02:59:45;;;;;;;0.68;0.40;;;8.30;81.50;;;;;;4952109;28;20104;-63
2023/04/13 03:02:12;;;;;;;0.65;0.35;;;8.30;81.50;;;;;;4951943;28;20486;-61
2023/04/13 03:04:37;;;;;;;1.30;0.40;;;8.30;81.30;;;;;;4958625;28;20079;-62
2023/04/13 03:07:05;;;;;;;0.60;0.35;;;8.30;81.20;;;;;;4954262;28;20117;-63
2023/04/13 03:09:32;;;;;;;1.05;0.50;;;8.30;81.20;;;;;;4950841;28;20119;-62
2023/04/13 03:11:57;;;;;;;2.28;0.50;;;8.20;81.00;;;;;;4953500;28;20046;-62
2023/04/13 03:14:28;;;;;;;0.50;0.43;;;8.20;81.00;;;;;;4951200;28;20042;-62
2023/04/13 03:16:57;;;;;;;0.85;0.40;;;8.20;81.00;;;;;;4951808;28;20525;-62
2023/04/13 03:19:24;;;;;;;1.00;0.60;;;8.20;81.00;;;;;;4954713;28;20048;-62
2023/04/13 03:21:49;;;;;;;3.13;0.45;;;8.20;81.00;;;;;;4953129;28;20520;-61
2023/04/13 03:24:15;;;;;;;1.92;0.63;;;8.20;81.00;;;;;;4955233;28;20043;-62
2023/04/13 03:26:40;;;;;;;0.60;0.40;;;8.10;80.90;;;;;;4951051;28;20503;-63
2023/04/13 03:29:06;;;;;;;2.53;0.50;;;8.10;81.00;;;;;;4957045;28;20117;-63
2023/04/13 03:31:32;;;;;;;0.90;0.43;;;8.10;80.80;;;;;;4956387;28;20039;-62
2023/04/13 03:33:57;;;;;;;2.33;0.50;;;8.10;80.80;;;;;;4958396;28;20048;-62
2023/04/13 03:36:26;;;;;;;2.90;0.60;;;8.10;80.80;;;;;;4957887;28;20296;-62
2023/04/13 03:38:51;;;;;;;2.38;0.45;;;8.10;80.60;;;;;;4955353;28;20077;-63
2023/04/13 03:41:17;;;;;;;2.65;0.50;;;8.00;80.50;;;;;;4956724;28;20051;-62
2023/04/13 03:43:43;;;;;;;1.27;0.45;;;8.00;80.40;;;;;;4952791;28;20043;-62
2023/04/13 03:46:09;;;;;;;1.80;0.60;;;8.00;80.20;;;;;;4953500;28;20026;-62
2023/04/13 03:48:35;;;;;;;6.00;0.50;;;8.00;80.00;;;;;;4951730;28;20039;-61
2023/04/13 03:51:01;;;;;;;0.40;0.30;;;8.00;79.80;;;;;;4955718;28;20043;-63
2023/04/13 03:53:27;;;;;;;1.48;0.40;;;8.00;79.70;;;;;;4953300;28;20035;-63
2023/04/13 03:55:53;;;;;;;1.90;0.50;;;7.90;79.60;;;;;;4951625;28;20030;-62
2023/04/13 03:58:18;;;;;;;1.13;0.40;;;7.90;80.20;;;;;;4950954;28;20238;-63
2023/04/13 04:00:44;;;;;;;0.50;0.35;;;7.90;79.30;;;;;;4934516;28;20043;-63
2023/04/13 04:03:10;;;;;;;2.03;0.60;;;7.90;79.30;;;;;;4950814;28;20034;-62
2023/04/13 04:05:39;;;;;;;10.05;4.88;;;7.90;79.10;;;;;;4953418;28;20043;-63
2023/04/13 04:08:05;;;;;;;11.95;7.72;;;7.90;79.20;;;;;;4955503;28;20034;-62
2023/04/13 04:10:30;;;;;;;39.85;23.08;;;7.90;79.10;;;;;;4953582;28;20518;-63
2023/04/13 04:12:56;;;;;;;5.57;3.58;;;7.90;79.10;;;;;;4954739;28;20566;-62
2023/04/13 04:15:22;;;;;;;3.22;2.20;;;7.90;79.10;;;;;;4957061;28;20055;-62
2023/04/13 04:17:47;;;;;;;5.75;1.70;;;7.90;79.10;;;;;;4950341;28;20070;-63
2023/04/13 04:20:13;;;;;;;3.05;1.33;;;7.80;79.00;;;;;;4952715;28;20082;-61
2023/04/13 04:22:40;;;;;;;2.47;0.90;;;7.80;79.00;;;;;;4954454;28;20490;-62
2023/04/13 04:25:07;;;;;;;4.13;0.95;;;7.80;78.90;;;;;;4945438;28;20043;-62
2023/04/13 04:27:36;;;;;;;0.93;0.50;;;7.80;78.90;;;;;;4954988;28;20027;-61
2023/04/13 04:30:03;;;;;;;2.90;1.15;;;7.80;79.00;;;;;;4956551;28;20039;-62
2023/04/13 04:32:29;;;;;;;2.03;0.70;;;7.70;79.10;;;;;;4955487;28;20379;-61
2023/04/13 04:34:55;;;;;;;1.85;0.60;;;7.70;79.30;;;;;;4957195;28;20035;-62
2023/04/13 04:37:21;;;;;;;2.90;0.70;;;7.70;79.40;;;;;;4960268;28;20137;-62
2023/04/13 04:39:47;;;;;;;2.67;0.57;;;7.70;79.30;;;;;;4958868;28;20563;-62
2023/04/13 04:42:13;;;;;;;2.58;1.10;;;7.60;79.40;;;;;;4960511;28;20131;-62
2023/04/13 04:44:39;;;;;;;2.60;0.70;;;7.60;79.50;;;;;;4958147;28;20038;-63
2023/04/13 04:47:05;;;;;;;2.50;0.57;;;7.60;79.50;;;;;;4959109;28;20142;-62
2023/04/13 04:49:32;;;;;;;3.45;0.65;;;7.60;79.40;;;;;;4959301;28;20111;-62
2023/04/13 04:51:58;;;;;;;2.80;0.82;;;7.60;79.40;;;;;;4958489;28;20074;-63
2023/04/13 04:54:24;;;;;;;4.30;0.90;;;7.60;79.40;;;;;;4959037;28;20512;-62
2023/04/13 04:56:50;;;;;;;3.67;0.70;;;7.60;79.40;;;;;;4957778;28;20054;-62
2023/04/13 04:59:18;;;;;;;2.92;0.68;;;7.60;79.50;;;;;;4959907;28;20039;-63
2023/04/13 05:01:44;;;;;;;5.70;0.98;;;7.60;79.40;;;;;;4957838;28;20070;-63
2023/04/13 05:04:10;;;;;;;2.25;0.80;;;7.60;79.40;;;;;;4960240;28;20063;-62
2023/04/13 05:06:39;;;;;;;5.13;3.03;;;7.70;79.40;;;;;;4958230;28;20050;-63
2023/04/13 05:09:05;;;;;;;3.88;3.13;;;7.60;79.40;;;;;;4943041;28;20043;-62
2023/04/13 05:11:31;;;;;;;10.32;3.85;;;7.70;79.40;;;;;;4960152;28;20046;-62
2023/04/13 05:13:57;;;;;;;2.78;1.42;;;7.70;79.20;;;;;;4958932;28;20126;-61
2023/04/13 05:16:23;;;;;;;6.32;2.83;;;7.70;79.00;;;;;;4958799;28;20059;-62
2023/04/13 05:18:49;;;;;;;4.20;1.40;;;7.70;78.90;;;;;;4958049;28;20089;-63
2023/04/13 05:21:16;;;;;;;4.45;1.25;;;7.70;78.70;;;;;;4958889;28;20039;-61
2023/04/13 05:23:42;;;;;;;3.42;1.17;;;7.70;78.60;;;;;;4941267;28;20045;-62
2023/04/13 05:26:09;;;;;;;4.07;1.02;;;7.70;78.50;;;;;;4958043;28;20051;-62
2023/04/13 05:28:35;;;;;;;5.28;0.90;;;7.80;78.50;;;;;;4958036;28;20031;-62
2023/04/13 05:31:02;;;;;;;4.13;1.02;;;7.70;78.30;;;;;;4958100;28;20389;-62
2023/04/13 05:33:28;;;;;;;5.80;0.70;;;7.80;78.20;;;;;;4958191;28;20114;-62
2023/04/13 05:35:54;;;;;;;4.38;0.82;;;7.70;78.10;;;;;;4957165;28;20054;-61
2023/04/13 05:38:20;;;;;;;5.38;0.75;;;7.70;78.00;;;;;;4958496;28;20038;-62
2023/04/13 05:40:45;;;;;;;3.10;0.85;;;7.90;78.10;;;;;;4958477;28;20101;-62
2023/04/13 05:43:12;;;;;;;4.07;0.80;;;7.80;78.00;;;;;;4940833;28;20043;-62
2023/04/13 05:45:37;;;;;;;3.72;0.70;;;7.80;78.00;;;;;;4958414;28;20046;-62
2023/04/13 05:48:03;;;;;;;2.55;0.77;;;7.80;78.00;;;;;;4958078;28;20454;-62
2023/04/13 05:50:29;;;;;;;2.30;0.80;;;7.80;77.80;;;;;;4956373;28;20035;-63
2023/04/13 05:52:56;;;;;;;4.10;0.63;;;7.80;77.50;;;;;;4957982;28;20441;-62
2023/04/13 05:55:22;;;;;;;4.03;0.47;;;7.80;77.30;;;;;;4957391;28;20686;-63
2023/04/13 05:57:49;;;;;;;6.30;0.93;;;7.80;77.20;;;;;;4957839;28;20094;-62
2023/04/13 06:00:17;;;;;;;2.47;0.70;;;7.80;77.20;;;;;;4957833;28;20415;-62
2023/04/13 06:02:43;;;;;;;3.67;0.52;;;7.80;77.10;;;;;;4958343;28;20027;-62
2023/04/13 06:05:13;;;;;;;3.30;0.55;;;7.80;76.90;;;;;;4957828;28;20050;-62
2023/04/13 06:07:39;;;;;;;2.50;0.85;;;7.80;76.90;;;;;;4957090;28;20152;-63
2023/04/13 06:10:05;;;;;;;4.35;0.80;;;7.80;76.70;;;;;;4958451;28;20109;-63
2023/04/13 06:12:30;;;;;;;2.75;0.70;;;7.90;76.60;;;;;;4961543;28;20036;-63
2023/04/13 06:14:56;;;;;;;3.38;0.60;;;7.90;76.60;;;;;;4959208;28;20026;-62
2023/04/13 06:17:22;;;;;;;3.03;0.73;;;7.90;76.50;;;;;;4958586;28;20089;-62
2023/04/13 06:19:47;;;;;;;2.60;0.75;;;7.90;76.40;;;;;;4957615;28;20101;-63
2023/04/13 06:22:13;;;;;;;5.05;0.70;;;7.90;76.20;;;;;;4958518;28;20035;-63
2023/04/13 06:24:38;;;;;;;5.43;0.70;;;8.00;76.30;;;;;;4956950;28;20496;-62
2023/04/13 06:27:04;;;;;;;3.58;0.65;;;8.00;76.10;;;;;;4956856;28;20047;-61
2023/04/13 06:29:30;;;;;;;4.85;0.80;;;8.00;75.60;;;;;;4957043;28;20526;-62
2023/04/13 06:31:56;;;;;;;4.30;0.70;;;8.00;76.10;;;;;;4955579;28;20513;-61
2023/04/13 06:34:22;;;;;;;4.60;0.60;;;8.00;76.10;;;;;;4957974;28;20129;-62
2023/04/13 06:36:47;;;;;;;5.20;0.52;;;8.10;76.00;;;;;;4955678;28;20034;-62
2023/04/13 06:39:14;;;;;;;3.40;0.60;;;8.10;75.70;;;;;;4957262;28;20463;-62
2023/04/13 06:41:40;;;;;;;3.75;0.80;;;8.10;75.60;;;;;;4957244;28;20039;-62
2023/04/13 06:44:05;;;;;;;2.55;0.65;;;8.10;75.60;;;;;;4956128;28;20046;-63
2023/04/13 06:46:31;;;;;;;6.15;0.70;;;8.10;75.60;;;;;;4956386;28;20051;-62
2023/04/13 06:48:57;;;;;;;1.67;0.60;;;8.10;75.40;;;;;;4957204;28;20043;-62
2023/04/13 06:51:22;;;;;;;3.03;0.60;;;8.10;75.50;;;;;;4957119;28;20345;-62
2023/04/13 06:53:48;;;;;;;4.43;0.90;;;8.10;75.40;;;;;;4956610;28;20032;-62
2023/04/13 06:56:14;;;;;;;5.95;0.90;;;8.20;75.30;;;;;;4957248;28;20039;-62
2023/04/13 06:58:39;;;;;;;6.38;0.70;;;8.20;75.40;;;;;;4956226;28;20034;-62
2023/04/13 07:01:05;;;;;;;3.88;0.57;;;8.20;75.40;;;;;;4956292;28;20130;-61
2023/04/13 07:03:31;;;;;;;3.55;0.65;;;8.30;76.00;;;;;;4957819;28;20051;-61
2023/04/13 07:05:56;;;;;;;3.45;0.70;;;8.30;74.80;;;;;;4957887;28;20047;-62
2023/04/13 07:08:22;;;;;;;5.18;0.70;;;8.30;74.70;;;;;;4957694;28;20126;-62
2023/04/13 07:10:53;;;;;;;5.55;0.90;;;8.30;74.60;;;;;;4959692;28;20544;-62
2023/04/13 07:13:18;;;;;;;3.78;0.57;;;8.30;74.20;;;;;;4956703;28;20523;-61
2023/04/13 07:15:44;;;;;;;2.50;1.00;;;8.40;74.40;;;;;;4955454;28;20047;-62
2023/04/13 07:18:09;;;;;;;3.05;0.50;;;8.40;74.20;;;;;;4956202;28;20050;-61
2023/04/13 07:20:37;;;;;;;2.45;0.60;;;8.40;74.40;;;;;;4955792;28;20039;-62
2023/04/13 07:23:02;;;;;;;3.35;0.90;;;8.40;74.20;;;;;;4957023;28;20118;-62
2023/04/13 07:25:28;;;;;;;4.65;1.67;;;8.40;74.00;;;;;;4956340;28;20045;-62
2023/04/13 07:27:53;;;;;;;6.32;1.63;;;8.50;73.90;;;;;;4956377;28;20047;-62
2023/04/13 07:30:19;;;;;;;3.55;1.40;;;8.50;73.70;;;;;;4956537;28;20055;-62
2023/04/13 07:32:45;;;;;;;5.00;1.27;;;8.50;73.50;;;;;;4956679;28;20027;-61
2023/04/13 07:35:11;;;;;;;4.03;1.35;;;8.50;73.90;;;;;;4956416;28;20118;-62
2023/04/13 07:37:36;;;;;;;2.33;0.77;;;8.50;73.20;;;;;;4957656;28;20537;-63
2023/04/13 07:40:04;;;;;;;4.75;1.00;;;8.60;73.20;;;;;;4957531;28;20034;-61
2023/04/13 07:42:29;;;;;;;2.03;0.95;;;8.60;73.70;;;;;;4955681;28;20035;-62
2023/04/13 07:44:56;;;;;;;4.85;1.42;;;8.60;72.80;;;;;;4957279;28;20042;-61
2023/04/13 07:47:21;;;;;;;4.93;1.67;;;8.60;72.70;;;;;;4955265;28;20039;-62
2023/04/13 07:49:47;;;;;;;5.75;1.40;;;8.60;72.60;;;;;;4957441;28;20108;-63
2023/04/13 07:52:12;;;;;;;9.07;1.50;;;8.60;72.60;;;;;;4956261;28;20039;-62
2023/04/13 07:54:38;;;;;;;4.82;1.45;;;8.60;72.50;;;;;;4955661;28;20042;-62
2023/04/13 07:57:04;;;;;;;4.75;1.13;;;8.60;72.50;;;;;;4955597;28;20035;-62
2023/04/13 07:59:30;;;;;;;6.75;1.15;;;8.70;72.60;;;;;;4956300;28;20071;-63
2023/04/13 08:01:55;;;;;;;3.78;1.08;;;8.70;72.40;;;;;;4953450;28;20141;-62
2023/04/13 08:04:21;;;;;;;3.83;1.40;;;8.70;72.00;;;;;;4957430;28;20846;-62
2023/04/13 08:06:47;;;;;;;6.25;0.85;;;8.70;71.90;;;;;;4956943;28;21062;-60
2023/04/13 08:09:13;;;;;;;5.28;0.95;;;8.70;72.00;;;;;;4960341;28;20591;-62
2023/04/13 08:11:40;;;;;;;6.80;0.75;;;8.80;72.30;;;;;;4963143;28;20130;-62
2023/04/13 08:14:08;;;;;;;4.57;1.23;;;8.80;72.00;;;;;;4961381;28;20058;-62
2023/04/13 08:16:34;;;;;;;3.65;1.08;;;8.80;71.90;;;;;;4961667;28;20042;-62
2023/04/13 08:19:00;;;;;;;4.55;1.42;;;8.80;71.60;;;;;;4961397;28;20039;-62
2023/04/13 08:21:27;;;;;;;5.72;1.08;;;8.80;71.60;;;;;;4961675;28;20055;-62
2023/04/13 08:23:53;;;;;;;5.07;1.00;;;8.80;71.60;;;;;;4960174;28;20536;-62
2023/04/13 08:26:20;;;;;;;4.72;0.65;;;8.80;71.70;;;;;;4960935;28;20051;-62
2023/04/13 08:28:49;;;;;;;4.05;0.90;;;8.90;71.80;;;;;;4961498;28;20043;-62
2023/04/13 08:31:15;;;;;;;7.18;1.10;;;9.00;72.00;;;;;;4959863;28;20039;-62
2023/04/13 08:33:41;;;;;;;6.53;1.08;;;9.00;71.60;;;;;;4962068;28;20035;-62
2023/04/13 08:36:07;;;;;;;3.25;0.80;;;9.10;71.40;;;;;;4961157;28;20039;-62
2023/04/13 08:38:33;;;;;;;4.30;1.33;;;9.20;70.80;;;;;;4961810;28;20050;-63
2023/04/13 08:41:01;;;;;;;5.82;1.23;;;9.20;70.20;;;;;;4960277;28;20043;-62
2023/04/13 08:43:27;;;;;;;5.32;1.20;;;9.30;70.10;;;;;;4959931;28;20043;-62
2023/04/13 08:45:53;;;;;;;7.93;0.80;;;9.30;69.80;;;;;;4958987;28;20034;-62
2023/04/13 08:48:21;;;;;;;5.05;1.20;;;9.30;70.00;;;;;;4960199;28;20106;-61
2023/04/13 08:50:52;;;;;;;4.47;1.00;;;9.30;69.80;;;;;;4959509;28;20121;-62
2023/04/13 08:53:17;;;;;;;4.93;1.10;;;9.40;69.70;;;;;;4961897;28;20111;-61
2023/04/13 08:55:44;;;;;;;2.38;0.80;;;9.40;69.50;;;;;;4960487;28;20058;-62
2023/04/13 08:58:18;;;;;;;4.68;0.68;;;9.50;69.60;;;;;;4959726;28;20500;-62
2023/04/13 09:00:46;;;;;;;3.78;0.77;;;9.60;69.00;;;;;;4959009;28;20074;-62
2023/04/13 09:03:14;;;;;;;6.75;2.00;;;9.60;68.90;;;;;;4959718;28;20534;-62
2023/04/13 09:05:40;;;;;;;5.78;1.10;;;9.70;69.00;;;;;;4961023;28;20506;-62
2023/04/13 09:08:06;;;;;;;6.03;0.90;;;9.80;67.80;;;;;;4960543;28;20039;-62
2023/04/13 09:10:33;;;;;;;2.63;0.70;;;10.00;67.00;;;;;;4962001;28;20562;-61
2023/04/13 09:12:59;;;;;;;3.33;0.60;;;10.00;66.50;;;;;;4960960;28;20039;-62
2023/04/13 09:15:25;;;;;;;2.58;0.65;;;10.10;67.10;;;;;;4958605;28;20037;-60
2023/04/13 09:17:52;;;;;;;2.90;0.80;;;10.20;66.90;;;;;;4959793;28;20511;-62
2023/04/13 09:20:21;;;;;;;5.18;1.35;;;10.30;66.70;;;;;;4960309;28;20031;-62
2023/04/13 09:22:47;;;;;;;4.75;1.23;;;10.30;65.90;;;;;;4959275;28;20039;-61
2023/04/13 09:25:23;;;;;;;6.28;2.28;;;10.40;65.90;;;;;;4960732;28;20070;-61
2023/04/13 09:27:50;;;;;;;17.75;4.85;;;10.40;64.10;;;;;;4959292;28;20090;-61
2023/04/13 09:30:19;;;;;;;25.25;8.90;;;10.50;64.50;;;;;;4960223;28;20042;-61
2023/04/13 09:32:45;;;;;;;10.63;4.35;;;10.50;64.20;;;;;;4958364;28;20027;-62
2023/04/13 09:35:12;;;;;;;9.25;2.42;;;10.50;63.60;;;;;;4958592;28;20047;-62
2023/04/13 09:37:41;;;;;;;3.03;0.90;;;10.50;64.10;;;;;;4959984;28;20035;-61
2023/04/13 09:40:10;;;;;;;8.20;2.35;;;10.50;63.40;;;;;;4960123;28;20035;-61
2023/04/13 09:42:37;;;;;;;6.07;0.98;;;10.50;62.40;;;;;;4958655;28;20040;-62
2023/04/13 09:45:03;;;;;;;5.30;0.65;;;10.40;62.60;;;;;;4960054;28;20042;-61
2023/04/13 09:47:39;;;;;;;2.45;0.70;;;10.40;63.10;;;;;;4959522;28;20050;-62
2023/04/13 09:50:22;;;;;;;5.30;1.00;;;10.40;61.70;;;;;;4959474;28;20075;-63
2023/04/13 09:52:58;;;;;;;3.45;0.80;;;10.30;62.30;;;;;;4960445;28;20492;-63
2023/04/13 09:55:24;;;;;;;3.53;0.70;;;10.30;62.60;;;;;;4960073;28;20050;-63
2023/04/13 09:57:49;;;;;;;3.63;1.00;;;10.30;62.90;;;;;;4959405;28;20031;-63
2023/04/13 10:00:22;;;;;;;3.95;0.75;;;10.30;63.80;;;;;;4960165;28;20236;-61
2023/04/13 10:02:51;;;;;;;5.95;1.48;;;10.30;63.90;;;;;;4958246;28;20039;-63
2023/04/13 10:05:21;;;;;;;4.13;0.80;;;10.30;63.30;;;;;;4959907;28;20399;-63
2023/04/13 10:07:47;;;;;;;4.13;0.90;;;10.30;63.40;;;;;;4958625;28;20054;-62
2023/04/13 10:10:13;;;;;;;4.72;0.95;;;10.40;63.50;;;;;;4960288;28;20082;-62
2023/04/13 10:12:45;;;;;;;4.22;1.17;;;10.40;63.80;;;;;;4959149;28;20070;-62
2023/04/13 10:15:42;;;;;;;5.28;0.80;;;10.30;62.20;;;;;;4959447;28;20149;-62
2023/04/13 10:18:24;;;;;;;6.25;0.90;;;10.40;62.50;;;;;;4960926;28;20411;-62
2023/04/13 10:20:51;;;;;;;5.43;1.00;;;10.40;62.40;;;;;;4958811;28;20146;-62
2023/04/13 10:23:18;;;;;;;4.63;0.90;;;10.40;62.10;;;;;;4958631;28;20053;-61
2023/04/13 10:25:52;;;;;;;3.00;0.88;;;10.30;62.80;;;;;;4959860;28;20391;-62
2023/04/13 10:28:18;;;;;;;4.20;1.00;;;10.30;62.50;;;;;;4958504;28;20049;-61
2023/04/13 10:30:50;;;;;;;4.22;0.98;;;10.30;62.90;;;;;;4957756;28;20399;-62
2023/04/13 10:33:16;;;;;;;4.10;1.40;;;10.40;63.00;;;;;;4957732;28;20031;-61
2023/04/13 10:35:55;;;;;;;3.35;0.90;;;10.40;63.50;;;;;;4957604;28;20058;-60
2023/04/13 10:38:21;;;;;;;3.67;1.13;;;10.50;62.00;;;;;;4958814;28;20422;-62
2023/04/13 10:40:47;;;;;;;6.60;1.55;;;10.50;62.20;;;;;;4958574;28;20042;-61
2023/04/13 10:43:27;;;;;;;4.30;1.60;;;10.60;62.30;;;;;;4958863;28;20042;-62
2023/04/13 10:46:12;;;;;;;4.68;1.48;;;10.60;61.90;;;;;;4958611;28;20118;-62
2023/04/13 10:48:40;;;;;;;7.22;1.08;;;10.70;62.00;;;;;;4957813;28;20161;-61
2023/04/13 10:51:06;;;;;;;8.43;1.70;;;10.80;61.20;;;;;;4959177;28;20035;-62
2023/04/13 10:53:33;;;;;;;4.43;1.48;;;10.80;60.90;;;;;;4958562;28;20380;-62
2023/04/13 10:56:00;;;;;;;5.80;2.55;;;10.80;61.90;;;;;;4958112;28;20814;-62
2023/04/13 10:58:28;;;;;;;5.70;1.35;;;10.90;61.90;;;;;;4958330;28;20039;-62
2023/04/13 11:00:54;;;;;;;7.75;2.90;;;10.90;61.80;;;;;;4957173;28;20106;-63
2023/04/13 11:03:20;;;;;;;5.32;2.13;;;11.00;61.30;;;;;;4957580;28;20066;-62
2023/04/13 11:05:47;;;;;;;7.15;1.30;;;11.10;61.60;;;;;;4958365;28;20046;-62
2023/04/13 11:08:19;;;;;;;6.07;2.45;;;11.10;61.00;;;;;;4958927;28;20074;-63
2023/04/13 11:10:51;;;;;;;6.32;1.20;;;11.20;61.10;;;;;;4959707;28;20039;-63
2023/04/13 11:13:17;;;;;;;6.13;3.15;;;11.20;60.60;;;;;;4958201;28;20087;-61
2023/04/13 11:15:42;;;;;;;10.15;3.38;;;11.20;61.10;;;;;;4956990;28;20040;-61
2023/04/13 11:18:09;;;;;;;5.00;2.30;;;11.30;61.00;;;;;;4959197;28;20130;-62
2023/04/13 11:20:39;;;;;;;4.85;1.35;;;11.30;61.20;;;;;;4956489;28;20126;-61
2023/04/13 11:23:12;;;;;;;6.13;1.98;;;11.40;59.50;;;;;;4957930;28;20140;-63
2023/04/13 11:25:37;;;;;;;6.22;2.25;;;11.40;59.70;;;;;;4957505;28;20050;-63
2023/04/13 11:28:04;;;;;;;5.38;2.13;;;11.50;59.90;;;;;;4955283;28;20062;-61
2023/04/13 11:30:31;;;;;;;6.80;2.30;;;11.50;59.70;;;;;;4955664;28;20402;-63
2023/04/13 11:32:59;;;;;;;3.92;1.52;;;11.50;60.00;;;;;;4959050;28;20471;-63
2023/04/13 11:35:25;;;;;;;10.25;3.90;;;11.50;59.80;;;;;;4957134;28;20035;-62
2023/04/13 11:37:53;;;;;;;13.95;5.15;;;11.60;60.00;;;;;;4956678;28;20038;-63
2023/04/13 11:40:24;;;;;;;7.70;2.17;;;11.60;59.80;;;;;;4959632;28;20117;-61
2023/04/13 11:42:58;;;;;;;6.43;1.63;;;11.60;59.50;;;;;;4957685;28;20035;-62
2023/04/13 11:45:25;;;;;;;8.60;2.30;;;11.60;59.10;;;;;;4961443;28;20031;-62
2023/04/13 11:47:52;;;;;;;8.20;1.88;;;11.60;59.50;;;;;;4961195;28;20130;-62
2023/04/13 11:50:19;;;;;;;5.55;1.77;;;11.60;58.50;;;;;;4962320;28;20039;-62
2023/04/13 11:52:47;;;;;;;5.72;1.60;;;11.60;59.10;;;;;;4961952;28;20043;-63
2023/04/13 11:55:14;;;;;;;3.90;1.10;;;11.60;59.00;;;;;;4962457;28;20692;-62
2023/04/13 11:57:40;;;;;;;5.00;1.00;;;11.60;58.70;;;;;;4961391;28;20027;-62
2023/04/13 12:00:17;;;;;;;5.80;1.00;;;11.60;59.00;;;;;;4959833;28;20319;-63
2023/04/13 12:02:43;;;;;;;5.85;0.90;;;11.60;58.40;;;;;;4960558;28;20494;-61
2023/04/13 12:05:21;;;;;;;4.32;1.15;;;11.50;58.90;;;;;;4961570;28;20113;-60
2023/04/13 12:07:47;;;;;;;5.97;1.30;;;11.60;58.10;;;;;;4960755;28;20057;-63
2023/04/13 12:10:26;;;;;;;4.85;1.27;;;11.60;58.60;;;;;;4962656;28;20047;-61
2023/04/13 12:13:09;;;;;;;9.85;1.40;;;11.60;58.10;;;;;;4961788;28;20974;-62
2023/04/13 12:15:36;;;;;;;3.78;1.55;;;11.60;57.40;;;;;;4962445;28;20499;-63
2023/04/13 12:18:03;;;;;;;5.32;1.00;;;11.60;58.40;;;;;;4960217;28;20507;-63
2023/04/13 12:20:38;;;;;;;6.53;1.30;;;11.60;58.40;;;;;;4961197;28;20462;-63
2023/04/13 12:23:17;;;;;;;3.97;1.40;;;11.60;58.00;;;;;;4961544;28;20090;-63
2023/04/13 12:26:07;;;;;;;5.03;1.20;;;11.70;58.40;;;;;;4961069;28;20523;-63
2023/04/13 12:28:36;;;;;;;5.22;1.10;;;11.70;58.00;;;;;;4960622;28;20075;-62
2023/04/13 12:31:10;;;;;;;4.65;1.00;;;11.70;58.00;;;;;;4960259;28;20062;-63
2023/04/13 12:33:37;;;;;;;3.88;1.27;;;11.70;58.50;;;;;;4961434;28;20051;-63
2023/04/13 12:36:05;;;;;;;3.40;0.80;;;11.80;58.50;;;;;;4960764;28;20061;-61
2023/04/13 12:38:31;;;;;;;5.05;1.00;;;11.80;58.50;;;;;;4960971;28;20122;-63
2023/04/13 12:40:58;;;;;;;5.45;1.33;;;11.90;58.10;;;;;;4960748;28;20125;-63
2023/04/13 12:43:24;;;;;;;4.07;0.85;;;11.90;58.20;;;;;;4961217;28;20325;-61
2023/04/13 12:45:51;;;;;;;3.35;1.13;;;11.90;58.20;;;;;;4959098;28;20503;-63
2023/04/13 12:48:16;;;;;;;3.75;1.13;;;12.00;58.20;;;;;;4961235;28;20045;-63
2023/04/13 12:50:42;;;;;;;7.10;0.90;;;12.00;58.30;;;;;;4960125;28;20443;-62
2023/04/13 12:53:08;;;;;;;4.63;1.10;;;12.00;57.90;;;;;;4960064;28;20517;-62
2023/04/13 12:55:33;;;;;;;3.75;0.90;;;12.00;58.30;;;;;;4959987;28;20658;-61